createdAt,value
2023-09-23T00:01:06.607Z,99858.00
2023-09-23T00:03:36.369Z,99859.56
2023-09-23T00:06:05.110Z,99863.00
2023-09-23T00:08:33.631Z,99872.00
2023-09-23T00:11:02.711Z,99875.63
2023-09-23T00:13:33.776Z,99879.50
2023-09-23T00:16:04.655Z,99874.38
2023-09-23T00:18:33.786Z,99879.94
2023-09-23T00:21:03.425Z,99892.81
2023-09-23T00:23:32.280Z,99878.78
2023-09-23T00:26:01.984Z,99893.97
2023-09-23T00:28:32.074Z,99891.63
2023-09-23T00:31:12.472Z,99894.66
2023-09-23T00:33:41.139Z,99890.84
2023-09-23T00:36:10.672Z,99898.16
2023-09-23T00:38:39.735Z,99894.94
2023-09-23T00:41:09.631Z,99897.31
2023-09-23T00:43:39.235Z,99904.75
2023-09-23T00:46:09.679Z,99899.66
2023-09-23T00:48:40.548Z,99890.09
2023-09-23T00:51:09.372Z,99910.97
2023-09-23T00:53:41.333Z,99919.50
2023-09-23T00:56:11.142Z,99914.59
2023-09-23T00:58:44.000Z,99913.31
2023-09-23T01:01:17.548Z,99922.53
2023-09-23T01:03:47.203Z,99892.47
2023-09-23T01:06:17.793Z,99918.91
2023-09-23T01:08:47.569Z,99926.59
2023-09-23T01:11:18.749Z,99919.00
2023-09-23T01:13:52.057Z,99909.69
2023-09-23T01:16:23.831Z,99926.91
2023-09-23T01:18:54.939Z,99932.06
2023-09-23T01:21:23.585Z,99926.72
2023-09-23T01:23:54.706Z,99933.88
2023-09-23T01:26:24.685Z,99937.09
2023-09-23T01:28:53.295Z,99941.59
2023-09-23T01:31:23.653Z,99938.38
2023-09-23T01:33:52.683Z,99927.25
2023-09-23T01:36:21.225Z,99949.59
2023-09-23T01:38:50.614Z,99954.63
2023-09-23T01:41:20.388Z,99950.88
2023-09-23T01:43:50.294Z,99946.69
2023-09-23T01:46:21.155Z,99964.16
2023-09-23T01:48:49.717Z,99958.69
2023-09-23T01:51:18.896Z,99962.44
2023-09-23T01:53:47.556Z,99947.66
2023-09-23T01:56:15.885Z,99966.25
2023-09-23T01:58:46.461Z,99968.81
2023-09-23T02:01:15.596Z,99973.50
2023-09-23T02:03:44.919Z,99979.81
2023-09-23T02:06:14.089Z,99970.38
2023-09-23T02:08:42.384Z,99978.72
2023-09-23T02:11:11.025Z,99979.41
2023-09-23T02:13:42.373Z,99996.59
2023-09-23T02:16:12.221Z,99992.84
2023-09-23T02:18:41.106Z,99959.03
2023-09-23T02:21:10.195Z,99989.41
2023-09-23T02:23:38.548Z,99985.16
2023-09-23T02:26:07.998Z,99992.59
2023-09-23T02:28:36.333Z,99999.88
2023-09-23T02:31:04.681Z,100006.09
2023-09-23T02:33:34.406Z,99987.88
2023-09-23T02:36:05.632Z,99993.00
2023-09-23T02:38:33.804Z,99996.66
2023-09-23T02:41:05.526Z,99994.41
2023-09-23T02:43:34.036Z,99981.41
2023-09-23T02:46:02.980Z,99978.59
2023-09-23T02:48:34.239Z,100004.31
2023-09-23T02:51:04.856Z,100017.69
2023-09-23T02:53:34.533Z,100017.47
2023-09-23T02:56:07.548Z,100014.91
2023-09-23T02:58:39.425Z,100019.81
2023-09-23T03:01:11.777Z,100021.91
2023-09-23T03:03:42.180Z,100023.69
2023-09-23T03:06:12.144Z,100028.00
2023-09-23T03:08:40.513Z,100036.13
2023-09-23T03:11:12.805Z,100034.22
2023-09-23T03:13:41.202Z,100038.06
2023-09-23T03:16:14.150Z,100027.38
2023-09-23T03:18:56.390Z,100029.91
2023-09-23T03:21:25.152Z,100034.91
2023-09-23T03:23:54.407Z,100046.91
2023-09-23T03:26:23.411Z,100054.81
2023-09-23T03:28:52.226Z,100054.94
2023-09-23T03:31:20.562Z,100064.09
2023-09-23T03:33:53.208Z,100053.41
2023-09-23T03:36:21.596Z,100069.81
2023-09-23T03:38:50.447Z,100066.38
2023-09-23T03:41:18.838Z,100077.66
2023-09-23T03:43:47.121Z,100074.78
2023-09-23T03:46:17.445Z,100076.91
2023-09-23T03:48:46.334Z,100092.16
2023-09-23T03:51:16.774Z,100090.34
2023-09-23T03:53:46.088Z,100095.81
2023-09-23T03:56:14.515Z,100089.59
2023-09-23T03:58:44.587Z,100099.41
2023-09-23T04:01:15.163Z,100108.38
2023-09-23T04:03:44.552Z,100112.22
2023-09-23T04:06:13.260Z,100118.50
2023-09-23T04:08:43.416Z,100125.91
2023-09-23T04:11:17.253Z,100139.28
2023-09-23T04:13:47.890Z,100137.19
2023-09-23T04:16:16.274Z,100131.06
2023-09-23T04:18:45.051Z,100153.09
2023-09-23T04:21:13.597Z,100146.50
2023-09-23T04:23:43.177Z,100156.09
2023-09-23T04:26:14.347Z,100153.44
2023-09-23T04:28:42.647Z,100161.75
2023-09-23T04:31:12.238Z,100173.00
2023-09-23T04:33:41.048Z,100164.25
2023-09-23T04:36:12.215Z,100171.47
2023-09-23T04:38:40.821Z,100166.50
2023-09-23T04:41:10.456Z,100180.78
2023-09-23T04:43:40.983Z,100182.69
2023-09-23T04:46:09.439Z,100185.28
2023-09-23T04:48:37.780Z,100189.63
2023-09-23T04:51:07.552Z,100197.56
2023-09-23T04:53:35.979Z,100197.63
2023-09-23T04:56:07.909Z,100199.81
2023-09-23T04:58:37.515Z,100202.84
2023-09-23T05:01:07.031Z,100214.31
2023-09-23T05:03:38.000Z,100222.03
2023-09-23T05:06:06.988Z,100216.19
2023-09-23T05:08:35.347Z,100232.91
2023-09-23T05:11:04.366Z,100223.38
2023-09-23T05:13:32.674Z,100229.66
2023-09-23T05:16:02.456Z,100208.75
2023-09-23T05:18:30.904Z,100241.69
2023-09-23T05:20:59.390Z,100248.69
2023-09-23T05:23:27.756Z,100241.25
2023-09-23T05:25:59.015Z,100259.75
2023-09-23T05:28:28.981Z,100256.91
2023-09-23T05:30:57.214Z,100269.13
2023-09-23T05:33:26.883Z,100247.53
2023-09-23T05:35:55.133Z,100268.38
2023-09-23T05:38:23.392Z,100259.00
2023-09-23T05:40:53.237Z,100266.31
2023-09-23T05:43:21.484Z,100268.97
2023-09-23T05:45:50.417Z,100264.88
2023-09-23T05:48:18.595Z,100266.94
2023-09-23T05:50:49.252Z,100275.25
2023-09-23T05:53:18.851Z,100278.03
2023-09-23T05:55:48.493Z,100280.88
2023-09-23T05:58:16.634Z,100284.13
2023-09-23T06:00:45.687Z,100285.84
2023-09-23T06:03:17.770Z,100281.25
2023-09-23T06:05:46.219Z,100294.22
2023-09-23T06:08:15.928Z,100292.91
2023-09-23T06:10:44.209Z,100293.44
2023-09-23T06:13:12.538Z,100278.63
2023-09-23T06:15:40.942Z,100309.81
2023-09-23T06:18:10.042Z,100290.34
2023-09-23T06:20:38.516Z,100300.22
2023-09-23T06:23:06.769Z,100295.50
2023-09-23T06:25:36.715Z,100323.06
2023-09-23T06:28:05.250Z,100318.91
2023-09-23T06:30:33.500Z,100316.84
2023-09-23T06:33:01.881Z,100318.41
2023-09-23T06:35:30.323Z,100319.75
2023-09-23T06:38:00.538Z,100322.16
2023-09-23T06:40:28.856Z,100332.50
2023-09-23T06:42:58.432Z,100335.97
2023-09-23T06:45:28.222Z,100341.25
2023-09-23T06:47:56.394Z,100350.59
2023-09-23T06:50:24.807Z,100353.56
2023-09-23T06:52:53.191Z,100354.75
2023-09-23T06:55:21.497Z,100339.25
2023-09-23T06:57:49.836Z,100350.28
2023-09-23T07:00:19.730Z,100342.09
2023-09-23T07:02:48.029Z,100337.84
2023-09-23T07:05:16.712Z,100343.06
2023-09-23T07:07:44.980Z,100325.72
2023-09-23T07:10:13.158Z,100356.81
2023-09-23T07:12:41.370Z,100363.41
2023-09-23T07:15:10.713Z,100369.63
2023-09-23T07:17:40.368Z,100358.06
2023-09-23T07:20:09.961Z,100363.63
2023-09-23T07:22:38.268Z,100368.38
2023-09-23T07:25:07.786Z,100372.56
2023-09-23T07:27:35.974Z,100394.75
2023-09-23T07:30:04.999Z,100389.03
2023-09-23T07:32:33.388Z,100399.91
2023-09-23T07:35:04.834Z,100401.56
2023-09-23T07:37:33.444Z,100405.09
2023-09-23T07:40:01.658Z,100411.41
2023-09-23T07:42:30.715Z,100423.06
2023-09-23T07:44:59.157Z,100398.75
2023-09-23T07:47:27.984Z,100421.94
2023-09-23T07:49:56.423Z,100422.75
2023-09-23T07:52:26.253Z,100430.28
2023-09-23T07:54:54.599Z,100442.63
2023-09-23T07:57:23.361Z,100448.38
2023-09-23T07:59:51.698Z,100453.13
2023-09-23T08:02:19.955Z,100457.81
2023-09-23T08:04:48.436Z,100465.06
2023-09-23T08:07:16.726Z,100464.69
2023-09-23T08:09:46.459Z,100470.09
2023-09-23T08:12:28.222Z,100481.16
2023-09-23T08:14:56.632Z,100451.88
2023-09-23T08:17:25.159Z,100481.44
2023-09-23T08:19:54.733Z,100480.84
2023-09-23T08:22:23.456Z,100477.84
2023-09-23T08:24:53.058Z,100474.19
2023-09-23T08:27:22.587Z,100488.97
2023-09-23T08:29:51.122Z,100487.06
2023-09-23T08:32:19.432Z,100488.63
2023-09-23T08:34:48.018Z,100505.00
2023-09-23T08:37:16.185Z,100501.84
2023-09-23T08:39:44.615Z,100505.16
2023-09-23T08:42:15.003Z,100517.06
2023-09-23T08:44:44.493Z,100514.72
2023-09-23T08:47:13.322Z,100523.63
2023-09-23T08:49:42.201Z,100534.72
2023-09-23T08:52:11.243Z,100536.88
2023-09-23T08:54:40.105Z,100538.88
2023-09-23T08:57:08.682Z,100552.03
2023-09-23T08:59:38.634Z,100540.22
2023-09-23T09:02:07.198Z,100558.50
2023-09-23T09:04:38.627Z,100555.72
2023-09-23T09:07:09.128Z,100558.69
2023-09-23T09:09:39.984Z,100560.34
2023-09-23T09:12:10.237Z,100571.22
2023-09-23T09:14:43.665Z,100575.06
2023-09-23T09:17:14.261Z,100570.66
2023-09-23T09:19:46.849Z,100571.34
2023-09-23T09:22:23.212Z,100580.56
2023-09-23T09:24:51.659Z,100567.13
2023-09-23T09:27:23.168Z,100563.97
2023-09-23T09:30:00.162Z,100582.38
2023-09-23T09:32:44.987Z,100583.81
2023-09-23T09:35:15.926Z,100584.72
2023-09-23T09:37:46.139Z,100582.78
2023-09-23T09:40:18.333Z,100578.38
2023-09-23T09:42:53.315Z,100593.59
2023-09-23T09:45:23.738Z,100578.13
2023-09-23T09:47:54.853Z,100576.50
2023-09-23T09:50:28.272Z,100593.78
2023-09-23T09:52:57.285Z,100592.28
2023-09-23T09:55:26.225Z,100590.41
2023-09-23T09:57:55.761Z,100582.34
2023-09-23T10:00:36.449Z,100591.91
2023-09-23T10:03:08.064Z,100601.53
2023-09-23T10:05:37.633Z,100599.38
2023-09-23T10:08:14.991Z,100600.56
2023-09-23T10:10:48.528Z,100604.38
2023-09-23T10:13:19.865Z,100590.13
2023-09-23T10:15:49.496Z,100610.84
2023-09-23T10:18:20.109Z,100618.09
2023-09-23T10:20:53.154Z,100610.69
2023-09-23T10:23:22.663Z,100607.25
2023-09-23T10:25:52.418Z,100609.66
2023-09-23T10:28:22.848Z,100621.13
2023-09-23T10:31:03.945Z,100597.06
2023-09-23T10:33:33.689Z,100612.09
2023-09-23T10:36:02.464Z,100620.16
2023-09-23T10:38:36.142Z,100634.13
2023-09-23T10:41:05.528Z,100625.38
2023-09-23T10:43:33.933Z,100626.50
2023-09-23T10:46:04.104Z,100610.41
2023-09-23T10:48:32.637Z,100624.00
2023-09-23T10:51:02.710Z,100632.59
2023-09-23T10:53:31.810Z,100634.13
2023-09-23T10:56:01.379Z,100639.72
2023-09-23T10:58:30.757Z,100633.50
2023-09-23T11:00:59.264Z,100633.59
2023-09-23T11:03:30.819Z,100632.94
2023-09-23T11:05:59.556Z,100627.41
2023-09-23T11:08:28.487Z,100635.44
2023-09-23T11:10:58.820Z,100633.91
2023-09-23T11:13:28.029Z,100628.16
2023-09-23T11:15:56.283Z,100655.09
2023-09-23T11:18:25.014Z,100647.22
2023-09-23T11:20:54.709Z,100653.94
2023-09-23T11:23:30.916Z,100649.06
2023-09-23T11:25:59.514Z,100661.84
2023-09-23T11:28:28.890Z,100641.66
2023-09-23T11:30:58.329Z,100633.91
2023-09-23T11:33:27.239Z,100665.41
2023-09-23T11:35:58.467Z,100665.84
2023-09-23T11:38:27.217Z,100654.69
2023-09-23T11:40:55.777Z,100658.09
2023-09-23T11:43:26.244Z,100667.41
2023-09-23T11:45:54.832Z,100664.91
2023-09-23T11:48:25.822Z,100674.53
2023-09-23T11:50:54.862Z,100682.53
2023-09-23T11:53:25.933Z,100682.88
2023-09-23T11:55:54.825Z,100686.16
2023-09-23T11:58:23.094Z,100683.81
2023-09-23T12:00:51.479Z,100682.94
2023-09-23T12:03:20.489Z,100688.78
2023-09-23T12:05:54.347Z,100685.94
2023-09-23T12:08:24.789Z,100689.88
2023-09-23T12:10:56.115Z,100686.25
2023-09-23T12:13:25.957Z,100691.38
2023-09-23T12:15:56.049Z,100685.38
2023-09-23T12:18:24.512Z,100694.66
2023-09-23T12:20:52.903Z,100695.47
2023-09-23T12:23:21.821Z,100694.34
2023-09-23T12:25:51.487Z,100679.22
2023-09-23T12:28:19.660Z,100688.03
2023-09-23T12:30:48.071Z,100699.16
2023-09-23T12:33:16.393Z,100690.22
2023-09-23T12:35:44.823Z,100697.31
2023-09-23T12:38:13.216Z,100688.97
2023-09-23T12:40:42.409Z,100696.34
2023-09-23T12:43:12.597Z,100691.53
2023-09-23T12:45:42.800Z,100705.50
2023-09-23T12:48:11.372Z,100715.78
2023-09-23T12:50:39.765Z,100716.69
2023-09-23T12:53:08.344Z,100709.75
2023-09-23T12:55:36.933Z,100708.94
2023-09-23T12:58:06.593Z,100721.44
2023-09-23T13:00:37.012Z,100721.03
2023-09-23T13:03:06.593Z,100726.13
2023-09-23T13:05:37.204Z,100735.78
2023-09-23T13:08:07.111Z,100721.06
2023-09-23T13:10:35.751Z,100741.16
2023-09-23T13:13:04.241Z,100741.31
2023-09-23T13:15:32.647Z,100738.88
2023-09-23T13:18:03.647Z,100739.56
2023-09-23T13:20:32.355Z,100737.41
2023-09-23T13:23:02.701Z,100739.22
2023-09-23T13:25:32.058Z,100729.91
2023-09-23T13:28:00.337Z,100742.31
2023-09-23T13:30:29.158Z,100737.31
2023-09-23T13:32:57.544Z,100748.69
2023-09-23T13:35:27.314Z,100728.88
2023-09-23T13:37:55.674Z,100747.34
2023-09-23T13:40:25.085Z,100757.56
2023-09-23T13:42:53.621Z,100755.91
2023-09-23T13:45:22.040Z,100755.28
2023-09-23T13:47:50.467Z,100754.22
2023-09-23T13:50:19.013Z,100753.78
2023-09-23T13:52:49.234Z,100751.19
2023-09-23T13:55:17.435Z,100762.34
2023-09-23T13:57:45.640Z,100761.84
2023-09-23T14:00:14.577Z,100757.81
2023-09-23T14:02:43.643Z,100755.13
2023-09-23T14:05:12.049Z,100754.69
2023-09-23T14:07:40.427Z,100754.28
2023-09-23T14:10:21.330Z,100737.31
2023-09-23T14:12:50.328Z,100774.19
2023-09-23T14:15:19.037Z,100776.66
2023-09-23T14:17:48.895Z,100781.91
2023-09-23T14:20:17.820Z,100776.34
2023-09-23T14:22:47.837Z,100779.78
2023-09-23T14:25:18.735Z,100783.22
2023-09-23T14:27:47.058Z,100786.88
2023-09-23T14:30:15.538Z,100766.13
2023-09-23T14:32:43.911Z,100774.84
2023-09-23T14:35:12.179Z,100777.16
2023-09-23T14:37:40.905Z,100782.53
2023-09-23T14:40:10.324Z,100784.06
2023-09-23T14:42:40.057Z,100792.38
2023-09-23T14:45:09.957Z,100802.69
2023-09-23T14:47:38.999Z,100809.50
2023-09-23T14:50:08.177Z,100800.16
2023-09-23T14:52:36.591Z,100805.75
2023-09-23T14:55:06.536Z,100812.50
2023-09-23T14:57:34.967Z,100819.63
2023-09-23T15:00:06.548Z,100814.56
2023-09-23T15:02:35.094Z,100825.22
2023-09-23T15:05:03.789Z,100827.16
2023-09-23T15:07:32.311Z,100822.75
2023-09-23T15:10:00.776Z,100831.06
2023-09-23T15:12:29.006Z,100839.03
2023-09-23T15:14:57.430Z,100835.88
2023-09-23T15:17:28.376Z,100835.09
2023-09-23T15:19:56.761Z,100854.50
2023-09-23T15:22:25.169Z,100847.19
2023-09-23T15:24:53.369Z,100856.16
2023-09-23T15:27:21.636Z,100856.16
2023-09-23T15:29:49.874Z,100857.03
2023-09-23T15:32:18.223Z,100862.41
2023-09-23T15:34:48.053Z,100873.50
2023-09-23T15:37:16.263Z,100867.78
2023-09-23T15:39:46.305Z,100884.78
2023-09-23T15:42:15.795Z,100889.03
2023-09-23T15:44:44.314Z,100887.09
2023-09-23T15:47:12.662Z,100883.34
2023-09-23T15:49:44.083Z,100898.47
2023-09-23T15:52:16.062Z,100885.09
2023-09-23T15:54:44.314Z,100889.66
2023-09-23T15:57:13.172Z,100892.03
2023-09-23T15:59:41.799Z,100892.75
2023-09-23T16:02:10.410Z,100906.19
2023-09-23T16:04:38.836Z,100900.41
2023-09-23T16:07:07.166Z,100916.22
2023-09-23T16:09:36.826Z,100906.16
2023-09-23T16:12:06.213Z,100907.69
2023-09-23T16:14:34.609Z,100921.75
2023-09-23T16:17:03.044Z,100899.97
2023-09-23T16:19:31.371Z,100923.44
2023-09-23T16:21:59.607Z,100928.63
2023-09-23T16:24:27.801Z,100927.97
2023-09-23T16:26:58.396Z,100936.22
2023-09-23T16:29:26.709Z,100941.97
2023-09-23T16:31:55.030Z,100931.81
2023-09-23T16:34:23.303Z,100945.06
2023-09-23T16:36:51.555Z,100936.88
2023-09-23T16:39:22.882Z,100950.03
2023-09-23T16:41:51.462Z,100954.25
2023-09-23T16:44:21.429Z,100955.81
2023-09-23T16:46:51.121Z,100947.75
2023-09-23T16:49:19.611Z,100948.88
2023-09-23T16:51:49.176Z,100971.63
2023-09-23T16:54:17.418Z,100944.84
2023-09-23T16:56:45.843Z,100953.66
2023-09-23T16:59:14.157Z,100971.72
2023-09-23T17:01:43.832Z,100977.34
2023-09-23T17:04:12.618Z,100971.03
2023-09-23T17:06:40.898Z,100980.91
2023-09-23T17:09:09.326Z,100977.47
2023-09-23T17:11:37.713Z,100988.00
2023-09-23T17:14:06.775Z,100993.56
2023-09-23T17:16:35.518Z,100982.81
2023-09-23T17:19:05.686Z,101005.72
2023-09-23T17:21:39.689Z,100987.59
2023-09-23T17:24:08.636Z,100998.00
2023-09-23T17:26:37.000Z,101014.53
2023-09-23T17:29:07.567Z,101015.75
2023-09-23T17:31:36.695Z,101015.94
2023-09-23T17:34:06.571Z,101023.22
2023-09-23T17:36:35.225Z,101027.03
2023-09-23T17:39:03.972Z,101029.81
2023-09-23T17:41:32.639Z,101034.41
2023-09-23T17:44:01.016Z,101022.41
2023-09-23T17:46:29.432Z,101033.91
2023-09-23T17:48:57.790Z,101032.53
2023-09-23T17:51:27.616Z,101040.88
2023-09-23T17:53:55.897Z,101043.78
2023-09-23T17:56:25.866Z,101052.97
2023-09-23T17:58:54.138Z,101063.72
2023-09-23T18:01:25.446Z,101065.97
2023-09-23T18:03:54.171Z,101070.09
2023-09-23T18:06:22.872Z,101075.66
2023-09-23T18:08:52.835Z,101074.78
2023-09-23T18:11:21.826Z,101074.94
2023-09-23T18:13:50.294Z,101068.72
2023-09-23T18:16:18.912Z,101076.88
2023-09-23T18:18:47.561Z,101093.91
2023-09-23T18:21:17.471Z,101083.53
2023-09-23T18:23:46.251Z,101076.16
2023-09-23T18:26:16.415Z,101092.91
2023-09-23T18:28:46.022Z,101093.94
2023-09-23T18:31:14.493Z,101101.75
2023-09-23T18:33:43.218Z,101095.88
2023-09-23T18:36:12.135Z,101107.28
2023-09-23T18:38:40.675Z,101110.81
2023-09-23T18:41:09.148Z,101111.94
2023-09-23T18:43:38.770Z,101112.81
2023-09-23T18:46:07.169Z,101120.16
2023-09-23T18:48:35.503Z,101131.66
2023-09-23T18:51:04.085Z,101138.91
2023-09-23T18:53:34.541Z,101147.13
2023-09-23T18:56:04.257Z,101151.53
2023-09-23T18:58:32.884Z,101146.34
2023-09-23T19:01:05.276Z,101150.69
2023-09-23T19:03:33.796Z,101151.09
2023-09-23T19:06:02.196Z,101146.75
2023-09-23T19:08:30.875Z,101168.81
2023-09-23T19:10:59.191Z,101176.69
2023-09-23T19:13:27.496Z,101180.41
2023-09-23T19:15:55.896Z,101183.16
2023-09-23T19:18:25.740Z,101189.31
2023-09-23T19:20:54.419Z,101187.50
2023-09-23T19:23:22.810Z,101193.03
2023-09-23T19:25:54.452Z,101196.47
2023-09-23T19:28:23.654Z,101203.75
2023-09-23T19:30:52.191Z,101200.28
2023-09-23T19:33:20.466Z,101196.75
2023-09-23T19:35:52.029Z,101195.88
2023-09-23T19:38:20.466Z,101199.34
2023-09-23T19:40:48.743Z,101192.13
2023-09-23T19:43:18.822Z,101211.00
2023-09-23T19:45:49.115Z,101222.66
2023-09-23T19:48:17.725Z,101220.38
2023-09-23T19:50:50.729Z,101223.88
2023-09-23T19:53:19.393Z,101226.31
2023-09-23T19:55:48.299Z,101226.31
2023-09-23T19:58:19.641Z,101230.97
2023-09-23T20:00:48.982Z,101230.28
2023-09-23T20:03:17.987Z,101241.13
2023-09-23T20:05:48.370Z,101235.63
2023-09-23T20:08:19.775Z,101236.63
2023-09-23T20:10:50.234Z,101238.56
2023-09-23T20:13:20.358Z,101247.66
2023-09-23T20:15:50.307Z,101257.63
2023-09-23T20:18:18.931Z,101245.69
2023-09-23T20:20:50.393Z,101254.59
2023-09-23T20:23:20.109Z,101244.69
2023-09-23T20:25:49.933Z,101247.25
2023-09-23T20:28:18.815Z,101267.09
2023-09-23T20:30:49.627Z,101277.00
2023-09-23T20:33:19.820Z,101281.09
2023-09-23T20:35:49.530Z,101282.97
2023-09-23T20:38:19.549Z,101282.34
2023-09-23T20:40:48.518Z,101285.16
2023-09-23T20:43:17.480Z,101265.34
2023-09-23T20:45:45.814Z,101293.53
2023-09-23T20:48:14.414Z,101278.91
2023-09-23T20:50:43.216Z,101291.22
2023-09-23T20:53:12.736Z,101294.97
2023-09-23T20:55:42.870Z,101302.22
2023-09-23T20:58:11.575Z,101310.66
2023-09-23T21:00:39.898Z,101316.09
2023-09-23T21:03:10.107Z,101322.47
2023-09-23T21:05:39.072Z,101323.81
2023-09-23T21:08:07.660Z,101325.63
2023-09-23T21:10:36.341Z,101337.06
2023-09-23T21:13:06.417Z,101339.94
2023-09-23T21:15:34.815Z,101340.22
2023-09-23T21:18:03.303Z,101337.47
2023-09-23T21:20:32.236Z,101332.56
2023-09-23T21:23:02.955Z,101349.31
2023-09-23T21:25:32.182Z,101355.69
2023-09-23T21:28:02.270Z,101349.53
2023-09-23T21:30:32.039Z,101355.94
2023-09-23T21:33:00.362Z,101358.59
2023-09-23T21:35:28.863Z,101361.44
2023-09-23T21:37:57.107Z,101359.69
2023-09-23T21:40:25.610Z,101367.97
2023-09-23T21:42:53.812Z,101347.13
2023-09-23T21:45:23.491Z,101370.81
2023-09-23T21:47:53.280Z,101364.84
2023-09-23T21:50:21.963Z,101376.16
2023-09-23T21:52:50.293Z,101378.88
2023-09-23T21:55:18.812Z,101376.66
2023-09-23T21:57:49.102Z,101385.50
2023-09-23T22:00:27.528Z,101401.91
2023-09-23T22:02:59.708Z,101391.09
2023-09-23T22:05:30.277Z,101381.06
2023-09-23T22:08:00.351Z,101400.25
2023-09-23T22:10:29.341Z,101402.16
2023-09-23T22:13:00.209Z,101400.31
2023-09-23T22:15:30.048Z,101389.22
2023-09-23T22:17:59.800Z,101417.47
2023-09-23T22:20:29.409Z,101413.81
2023-09-23T22:23:00.685Z,101421.69
2023-09-23T22:25:29.171Z,101427.44
2023-09-23T22:27:59.541Z,101424.66
2023-09-23T22:30:28.095Z,101425.38
2023-09-23T22:32:57.723Z,101426.38
2023-09-23T22:35:28.997Z,101422.69
2023-09-23T22:37:58.216Z,101425.53
2023-09-23T22:40:26.797Z,101420.28
2023-09-23T22:42:59.097Z,101410.28
2023-09-23T22:48:00.510Z,101437.59
2023-09-23T22:50:30.383Z,101433.31
2023-09-23T22:52:59.030Z,101416.97
2023-09-23T22:55:27.454Z,101436.13
2023-09-23T22:57:56.870Z,101434.50
2023-09-23T23:00:28.618Z,101433.69
2023-09-23T23:02:58.293Z,101442.50
2023-09-23T23:05:27.951Z,101450.66
2023-09-23T23:07:58.582Z,101448.25
2023-09-23T23:10:26.989Z,101458.16
2023-09-23T23:12:55.747Z,101464.44
2023-09-23T23:15:24.538Z,101463.59
2023-09-23T23:17:53.866Z,101457.66
2023-09-23T23:20:24.356Z,101469.94
2023-09-23T23:22:54.118Z,101476.22
2023-09-23T23:25:25.284Z,101476.81
2023-09-23T23:27:54.387Z,101475.63
2023-09-23T23:30:22.944Z,101476.97
2023-09-23T23:32:53.145Z,101473.28
2023-09-23T23:35:23.585Z,101478.47
2023-09-23T23:37:52.942Z,101476.50
2023-09-23T23:40:22.632Z,101464.94
2023-09-23T23:42:52.778Z,101491.88
2023-09-23T23:45:22.163Z,101494.50
2023-09-23T23:47:56.465Z,101492.53
2023-09-23T23:50:25.124Z,101503.13
2023-09-23T23:52:53.705Z,101501.28
2023-09-23T23:55:26.191Z,101507.59
2023-09-23T23:57:56.350Z,101512.94
